地図

経路データ

SID SEASON NUMBER BASIN SUBBASIN NAME ISO_TIME NATURE LAT LON WMO_WIND WMO_PRES WMO_AGENCY TRACK_TYPE DIST2LAND LANDFALL IFLAG USA_AGENCY USA_ATCF_ID USA_LAT USA_LON USA_RECORD USA_STATUS USA_WIND USA_PRES USA_SSHS USA_R34_NE USA_R34_SE USA_R34_SW USA_R34_NW USA_R50_NE USA_R50_SE USA_R50_SW USA_R50_NW USA_R64_NE USA_R64_SE USA_R64_SW USA_R64_NW USA_POCI USA_ROCI USA_RMW USA_EYE TOKYO_LAT TOKYO_LON TOKYO_GRADE TOKYO_WIND TOKYO_PRES TOKYO_R50_DIR TOKYO_R50_LONG TOKYO_R50_SHORT TOKYO_R30_DIR TOKYO_R30_LONG TOKYO_R30_SHORT TOKYO_LAND CMA_LAT CMA_LON CMA_CAT CMA_WIND CMA_PRES HKO_LAT HKO_LON HKO_CAT HKO_WIND HKO_PRES NEWDELHI_LAT NEWDELHI_LON NEWDELHI_GRADE NEWDELHI_WIND NEWDELHI_PRES NEWDELHI_CI NEWDELHI_DP NEWDELHI_POCI REUNION_LAT REUNION_LON REUNION_TYPE REUNION_WIND REUNION_PRES REUNION_TNUM REUNION_CI REUNION_RMW REUNION_R34_NE REUNION_R34_SE REUNION_R34_SW REUNION_R34_NW REUNION_R50_NE REUNION_R50_SE REUNION_R50_SW REUNION_R50_NW REUNION_R64_NE REUNION_R64_SE REUNION_R64_SW REUNION_R64_NW BOM_LAT BOM_LON BOM_TYPE BOM_WIND BOM_PRES BOM_TNUM BOM_CI BOM_RMW BOM_R34_NE BOM_R34_SE BOM_R34_SW BOM_R34_NW BOM_R50_NE BOM_R50_SE BOM_R50_SW BOM_R50_NW BOM_R64_NE BOM_R64_SE BOM_R64_SW BOM_R64_NW BOM_ROCI BOM_POCI BOM_EYE BOM_POS_METHOD BOM_PRES_METHOD NADI_LAT NADI_LON NADI_CAT NADI_WIND NADI_PRES WELLINGTON_LAT WELLINGTON_LON WELLINGTON_WIND WELLINGTON_PRES DS824_LAT DS824_LON DS824_STAGE DS824_WIND DS824_PRES TD9636_LAT TD9636_LON TD9636_STAGE TD9636_WIND TD9636_PRES TD9635_LAT TD9635_LON TD9635_WIND TD9635_PRES TD9635_ROCI NEUMANN_LAT NEUMANN_LON NEUMANN_CLASS NEUMANN_WIND NEUMANN_PRES MLC_LAT MLC_LON MLC_CLASS MLC_WIND MLC_PRES USA_GUST BOM_GUST BOM_GUST_PER REUNION_GUST REUNION_GUST_PER USA_SEAHGT USA_SEARAD_NE USA_SEARAD_SE USA_SEARAD_SW USA_SEARAD_NW STORM_SPEED STORM_DIR
1994197N09229 1994 47 EP MM EMILIA 1994-07-16 00:00:00 TS 8.50000 -131.300 30 1010 hurdat_epa main 2725 2725 O_____________ hurdat_epa EP051994 8.50000 -131.300 TD 30 1010 -1 10 267
1994197N09229 1994 47 EP MM EMILIA 1994-07-16 03:00:00 TS 8.47266 -131.805 main 2765 2718 P_____________ EP051994 8.47266 -131.805 TD 30 1009 -1 10 270
1994197N09229 1994 47 EP MM EMILIA 1994-07-16 06:00:00 TS 8.50000 -132.300 30 1009 hurdat_epa main 2718 2664 O_____________ hurdat_epa EP051994 8.50000 -132.300 TD 30 1009 -1 10 279
1994197N09229 1994 47 EP MM EMILIA 1994-07-16 09:00:00 TS 8.61987 -132.785 main 2664 2606 P_____________ EP051994 8.61987 -132.785 TD 32 1007 -1 10 287
1994197N09229 1994 47 EP MM EMILIA 1994-07-16 12:00:00 TS 8.80000 -133.300 35 1006 hurdat_epa main 2606 2547 O_____________ hurdat_epa EP051994 8.80000 -133.300 TS 35 1006 0 11 289
1994197N09229 1994 47 EP MM EMILIA 1994-07-16 15:00:00 TS 8.99239 -133.870 main 2537 2469 P_____________ EP051994 8.99239 -133.870 TS 37 1003 0 13 289
1994197N09229 1994 47 EP MM EMILIA 1994-07-16 18:00:00 TS 9.20000 -134.500 40 1000 hurdat_epa main 2469 2401 O_____________ hurdat_epa EP051994 9.20000 -134.500 TS 40 1000 0 14 288
1994197N09229 1994 47 EP MM EMILIA 1994-07-16 21:00:00 TS 9.40740 -135.178 main 2391 2314 P_____________ EP051994 9.40740 -135.178 TS 47 997 0 14 286
1994197N09229 1994 47 EP MM EMILIA 1994-07-17 00:00:00 TS 9.60000 -135.900 55 995 hurdat_epa main 2314 2236 O_____________ hurdat_epa EP051994 9.60000 -135.900 TS 55 995 0 15 284
1994197N09229 1994 47 EP MM EMILIA 1994-07-17 03:00:00 TS 9.76493 -136.650 main 2227 2156 P_____________ EP051994 9.76493 -136.650 TS 62 991 0 15 281
1994197N09229 1994 47 EP MM EMILIA 1994-07-17 06:00:00 TS 9.90000 -137.400 70 988 hurdat_epa main 2156 2085 O_____________ hurdat_epa EP051994 9.90000 -137.400 HU 70 988 1 15 280
1994197N09229 1994 47 EP MM EMILIA 1994-07-17 09:00:00 TS 10.0074 -138.115 main 2085 2014 P_____________ EP051994 10.0074 -138.115 HU 75 983 1 14 278
1994197N09229 1994 47 EP MM EMILIA 1994-07-17 12:00:00 TS 10.1000 -138.800 80 979 hurdat_epa main 2014 1953 O_____________ hurdat_epa EP051994 10.1000 -138.800 HU 80 979 1 13 279
1994197N09229 1994 47 EP MM EMILIA 1994-07-17 15:00:00 TS 10.2073 -139.458 main 1944 1884 P_____________ EP051994 10.2073 -139.458 HU 85 973 2 13 279
1994197N09229 1994 47 EP CP EMILIA 1994-07-17 18:00:00 TS 10.3077 -140.108 90 968 hurdat_epa main 1884 1824 O_____________ hurdat_epa EP051994 10.3000 -140.100 HU 90 968 2 13 277
1994197N09229 1994 47 EP CP EMILIA 1994-07-17 21:00:00 TS 10.3624 -140.765 main 1815 1762 P_____________ EP051994 10.3499 -140.750 HU 95 965 2 13 275
1994197N09229 1994 47 EP CP EMILIA 1994-07-18 00:00:00 TS 10.4200 -141.420 100 962 hurdat_epa main 1762 1703 O_____________ hurdat_epa EP051994 10.4000 -141.400 HU 100 962 3 13 277
1994197N09229 1994 47 EP CP EMILIA 1994-07-18 03:00:00 TS 10.5249 -142.082 main 1694 1636 P_____________ EP051994 10.5000 -142.065 HU 107 960 3 13 279
1994197N09229 1994 47 EP CP EMILIA 1994-07-18 06:00:00 TS 10.6250 -142.725 115 958 hurdat_epa main 1636 1578 O_____________ hurdat_epa EP051994 10.6000 -142.700 HU 115 958 4 13 277
1994197N09229 1994 47 EP CP EMILIA 1994-07-18 09:00:00 TS 10.6844 -143.368 main 1570 1528 P_____________ EP051994 10.6575 -143.303 HU 117 955 4 12 275
1994197N09229 1994 47 EP CP EMILIA 1994-07-18 12:00:00 TS 10.7250 -143.925 120 953 hurdat_epa main 1528 1488 O_____________ hurdat_epa EP051994 10.7000 -143.800 HU 120 953 4 9 275
1994197N09229 1994 47 EP CP EMILIA 1994-07-18 15:00:00 TS 10.7566 -144.295 main 1488 1464 P_____________ EP051994 10.7422 -144.100 HU 122 946 4 7 276
1994197N09229 1994 47 EP CP EMILIA 1994-07-18 18:00:00 TS 10.8000 -144.650 125 940 hurdat_epa main 1464 1417 O_____________ hurdat_epa EP051994 10.8000 -144.400 HU 125 940 4 9 278
1994197N09229 1994 47 EP CP EMILIA 1994-07-18 21:00:00 TS 10.8705 -145.151 main 1409 1362 P_____________ EP051994 10.8849 -144.883 HU 127 935 4 11 279
1994197N09229 1994 47 EP CP EMILIA 1994-07-19 00:00:00 TS 10.9750 -145.750 130 930 hurdat_epa main 1362 1301 O_____________ hurdat_epa EP051994 11.0000 -145.500 HU 130 930 4 13 281
1994197N09229 1994 47 EP CP EMILIA 1994-07-19 03:00:00 TS 11.1213 -146.422 main 1301 1232 P_____________ EP051994 11.1501 -146.227 HU 132 929 4 14 283
1994197N09229 1994 47 EP CP EMILIA 1994-07-19 06:00:00 TS 11.2750 -147.125 135 928 hurdat_epa main 1232 1173 O_____________ hurdat_epa EP051994 11.3000 -147.000 HU 135 928 4 14 281
1994197N09229 1994 47 EP CP EMILIA 1994-07-19 09:00:00 TS 11.3930 -147.790 main 1173 1123 P_____________ EP051994 11.4074 -147.723 HU 135 927 4 13 280
1994197N09229 1994 47 EP CP EMILIA 1994-07-19 12:00:00 TS 11.5000 -148.425 135 926 hurdat_epa main 1123 1075 O_____________ hurdat_epa EP051994 11.5000 -148.400 HU 135 926 4 12 280
1994197N09229 1994 47 EP CP EMILIA 1994-07-19 15:00:00 TS 11.6142 -149.031 main 1075 1028 P_____________ EP051994 11.5999 -149.030 HU 137 926 5 12 281
1994197N09229 1994 47 EP CP EMILIA 1994-07-19 18:00:00 TS 11.7250 -149.600 140 926 hurdat_epa main 1028 989 O_____________ hurdat_epa EP051994 11.7000 -149.600 HU 140 926 5 11 280
1994197N09229 1994 47 EP CP EMILIA 1994-07-19 21:00:00 TS 11.8136 -150.136 main 989 952 P_____________ EP051994 11.7848 -150.115 HU 137 926 5 10 281
1994197N09229 1994 47 EP CP EMILIA 1994-07-20 00:00:00 TS 11.9250 -150.650 135 926 hurdat_epa main 952 906 O_____________ hurdat_epa EP051994 11.9000 -150.600 HU 135 926 4 11 286
1994197N09229 1994 47 EP CP EMILIA 1994-07-20 03:00:00 TS 12.1049 -151.170 main 900 859 P_____________ EP051994 12.0924 -151.100 HU 135 927 4 11 291
1994197N09229 1994 47 EP CP EMILIA 1994-07-20 06:00:00 TS 12.3000 -151.675 135 929 hurdat_epa main 853 823 O_____________ hurdat_epa EP051994 12.3000 -151.600 HU 135 929 4 10 289
1994197N09229 1994 47 EP CP EMILIA 1994-07-20 09:00:00 TS 12.4481 -152.167 main 818 779 P_____________ EP051994 12.4500 -152.115 HU 135 932 4 10 288
1994197N09229 1994 47 EP CP EMILIA 1994-07-20 12:00:00 TS 12.6000 -152.625 135 936 hurdat_epa main 779 741 O_____________ hurdat_epa EP051994 12.6000 -152.600 HU 135 936 4 9 292
1994197N09229 1994 47 EP CP EMILIA 1994-07-20 15:00:00 TS 12.7849 -153.036 main 741 704 P_____________ EP051994 12.7849 -153.015 HU 135 935 4 9 297
1994197N09229 1994 47 EP CP EMILIA 1994-07-20 18:00:00 TS 13.0000 -153.425 135 935 hurdat_epa main 704 669 O_____________ hurdat_epa EP051994 13.0000 -153.400 HU 135 935 4 9 300
1994197N09229 1994 47 EP CP EMILIA 1994-07-20 21:00:00 TS 13.2368 -153.833 main 669 625 P_____________ EP051994 13.2350 -153.808 HU 132 933 4 9 303
1994197N09229 1994 47 EP CP EMILIA 1994-07-21 00:00:00 TS 13.5000 -154.225 130 932 hurdat_epa main 625 582 O_____________ hurdat_epa EP051994 13.5000 -154.200 HU 130 932 4 9 306
1994197N09229 1994 47 EP CP EMILIA 1994-07-21 03:00:00 TS 13.7781 -154.592 main 582 543 P_____________ EP051994 13.7924 -154.565 HU 130 934 4 9 310
1994197N09229 1994 47 EP CP EMILIA 1994-07-21 06:00:00 TS 14.0750 -154.925 130 936 hurdat_epa main 543 506 O_____________ hurdat_epa EP051994 14.1000 -154.900 HU 130 936 4 9 314
1994197N09229 1994 47 EP CP EMILIA 1994-07-21 09:00:00 TS 14.3781 -155.222 main 506 470 P_____________ EP051994 14.3925 -155.215 HU 127 940 4 8 318
1994197N09229 1994 47 EP CP EMILIA 1994-07-21 12:00:00 TS 14.7000 -155.500 125 945 hurdat_epa main 470 436 O_____________ hurdat_epa EP051994 14.7000 -155.500 HU 125 945 4 9 320
1994197N09229 1994 47 EP CP EMILIA 1994-07-21 15:00:00 TS 15.0350 -155.789 main 436 392 P_____________ EP051994 15.0349 -155.750 HU 122 950 4 9 322
1994197N09229 1994 47 EP CP EMILIA 1994-07-21 18:00:00 TS 15.4000 -156.075 120 955 hurdat_epa main 393 352 O_____________ hurdat_epa EP051994 15.4000 -156.000 HU 120 955 4 10 325
1994197N09229 1994 47 EP CP EMILIA 1994-07-21 21:00:00 TS 15.8143 -156.346 main 352 316 P_____________ EP051994 15.8000 -156.293 HU 115 960 4 10 327
1994197N09229 1994 47 EP CP EMILIA 1994-07-22 00:00:00 TS 16.2250 -156.625 110 965 hurdat_epa main 316 287 O_____________ hurdat_epa EP051994 16.2000 -156.600 HU 110 965 3 10 325
1994197N09229 1994 47 EP CP EMILIA 1994-07-22 03:00:00 TS 16.5849 -156.919 main 287 274 P_____________ EP051994 16.5724 -156.885 HU 105 972 3 9 318
1994197N09229 1994 47 EP CP EMILIA 1994-07-22 06:00:00 TS 16.9000 -157.250 100 980 hurdat_epa main 274 271 O_____________ hurdat_epa EP051994 16.9000 -157.200 HU 100 980 3 9 311
1994197N09229 1994 47 EP CP EMILIA 1994-07-22 09:00:00 TS 17.1775 -157.637 main 276 276 P_____________ EP051994 17.1650 -157.585 HU 92 985 2 9 304
1994197N09229 1994 47 EP CP EMILIA 1994-07-22 12:00:00 TS 17.4250 -158.050 85 990 hurdat_epa main 300 293 O_____________ hurdat_epa EP051994 17.4000 -158.000 HU 85 990 2 9 302
1994197N09229 1994 47 EP CP EMILIA 1994-07-22 15:00:00 TS 17.6700 -158.458 main 315 315 P_____________ EP051994 17.6575 -158.408 HU 80 992 1 9 302
1994197N09229 1994 47 EP CP EMILIA 1994-07-22 18:00:00 TS 17.9000 -158.850 75 995 hurdat_epa main 343 343 O_____________ hurdat_epa EP051994 17.9000 -158.800 HU 75 995 1 8 302
1994197N09229 1994 47 EP CP EMILIA 1994-07-22 21:00:00 TS 18.1124 -159.215 main 365 362 P_____________ EP051994 18.0999 -159.158 HU 67 997 1 8 303
1994197N09229 1994 47 EP CP EMILIA 1994-07-23 00:00:00 TS 18.3250 -159.550 60 999 hurdat_epa main 370 350 O_____________ hurdat_epa EP051994 18.3000 -159.500 TS 60 999 0 7 308
1994197N09229 1994 47 EP CP EMILIA 1994-07-23 03:00:00 TS 18.5661 -159.835 main 350 346 P_____________ EP051994 18.5499 -159.843 TS 57 1000 0 7 310
1994197N09229 1994 47 EP CP EMILIA 1994-07-23 06:00:00 TS 18.8000 -160.150 55 1002 hurdat_epa main 349 343 O_____________ hurdat_epa EP051994 18.8000 -160.200 TS 55 1002 0 8 301
1994197N09229 1994 47 EP CP EMILIA 1994-07-23 09:00:00 TS 18.9837 -160.570 main 345 337 P_____________ EP051994 18.9999 -160.578 TS 50 1002 0 9 294
1994197N09229 1994 47 EP CP EMILIA 1994-07-23 12:00:00 TS 19.1750 -161.050 45 1003 hurdat_epa main 341 335 O_____________ hurdat_epa EP051994 19.2000 -161.000 TS 45 1003 0 10 295
1994197N09229 1994 47 EP CP EMILIA 1994-07-23 15:00:00 TS 19.4263 -161.554 main 345 336 P_____________ EP051994 19.4425 -161.493 TS 40 1003 0 11 299
1994197N09229 1994 47 EP CP EMILIA 1994-07-23 18:00:00 TS 19.7000 -162.050 35 1004 hurdat_epa main 351 350 O_____________ hurdat_epa EP051994 19.7000 -162.000 TS 35 1004 0 10 302
1994197N09229 1994 47 EP CP EMILIA 1994-07-23 21:00:00 TS 19.9811 -162.497 main 358 358 P_____________ EP051994 19.9649 -162.472 TS 32 1004 -1 10 303
1994197N09229 1994 47 EP CP EMILIA 1994-07-24 00:00:00 TS 20.2250 -162.900 30 1005 hurdat_epa main 379 379 O_____________ hurdat_epa EP051994 20.2000 -162.900 TD 30 1005 -1 8 300
1994197N09229 1994 47 EP CP EMILIA 1994-07-24 03:00:00 TS 20.3829 -163.245 main 395 395 P_____________ EP051994 20.3722 -163.250 TD 30 1005 -1 7 293
1994197N09229 1994 47 EP CP EMILIA 1994-07-24 06:00:00 TS 20.5000 -163.600 30 1006 hurdat_epa main 427 427 O_____________ hurdat_epa EP051994 20.5000 -163.600 TD 30 1006 -1 8 288
1994197N09229 1994 47 EP CP EMILIA 1994-07-24 09:00:00 TS 20.6212 -164.044 main 462 462 P_____________ EP051994 20.6000 -164.035 TD 27 1006 -1 9 286
1994197N09229 1994 47 EP CP EMILIA 1994-07-24 12:00:00 TS 20.7500 -164.525 25 1007 hurdat_epa main 504 507 O_____________ hurdat_epa EP051994 20.7000 -164.500 TD 25 1007 -1 9 288
1994197N09229 1994 47 EP CP EMILIA 1994-07-24 15:00:00 TS 20.9105 -165.002 main 551 551 P_____________ EP051994 20.8423 -164.943 TD 25 1008 -1 9 290
1994197N09229 1994 47 EP CP EMILIA 1994-07-24 18:00:00 TS 21.0750 -165.475 25 1009 hurdat_epa main 597 597 O_____________ hurdat_epa EP051994 21.0000 -165.400 TD 25 1009 -1 9 290
1994197N09229 1994 47 EP CP EMILIA 1994-07-24 21:00:00 TS 21.2196 -165.931 main 636 636 P_____________ EP051994 21.1529 -165.890 TD 25 1009 -1 9 288
1994197N09229 1994 47 EP CP EMILIA 1994-07-25 00:00:00 TS 21.3500 -166.375 25 1010 hurdat_epa main 684 O_____________ hurdat_epa EP051994 21.3000 -166.400 TD 25 1010 -1 9 288

IBTrACS Databaseについて

本データベースは、米国NOAAが公開する1842年以降の世界の熱帯低気圧のベストトラックデータアーカイブInternational Best Track Archive for Climate Stewardship (IBTrACS)を、ウェブで閲覧しやすい形式に変換したものです。

最終更新日:2021-10-27